createdAt,value
2022-09-03T00:01:19.438Z,40.15
2022-09-03T00:03:48.548Z,39.80
2022-09-03T00:06:19.415Z,39.58
2022-09-03T00:08:49.455Z,40.09
2022-09-03T00:11:19.976Z,39.50
2022-09-03T00:13:52.664Z,39.87
2022-09-03T00:16:21.781Z,39.54
2022-09-03T00:18:51.656Z,39.52
2022-09-03T00:21:32.217Z,39.81
2022-09-03T00:24:00.061Z,39.46
2022-09-03T00:26:29.367Z,39.74
2022-09-03T00:29:00.906Z,39.83
2022-09-03T00:31:30.682Z,39.38
2022-09-03T00:34:00.422Z,39.84
2022-09-03T00:36:34.546Z,39.86
2022-09-03T00:39:02.286Z,39.83
2022-09-03T00:41:33.748Z,39.68
2022-09-03T00:44:12.267Z,39.52
2022-09-03T00:46:42.968Z,39.23
2022-09-03T00:49:34.223Z,39.33
2022-09-03T00:52:12.743Z,39.79
2022-09-03T00:54:44.676Z,39.70
2022-09-03T00:57:30.659Z,39.78
2022-09-03T01:00:01.647Z,39.24
2022-09-03T01:02:35.670Z,39.77
2022-09-03T01:05:06.891Z,39.44
2022-09-03T01:07:46.234Z,39.14
2022-09-03T01:10:19.955Z,39.05
2022-09-03T01:12:51.358Z,39.05
2022-09-03T01:15:22.335Z,39.71
2022-09-03T01:18:00.498Z,39.56
2022-09-03T01:20:34.008Z,39.19
2022-09-03T01:23:29.218Z,39.55
2022-09-03T01:26:03.158Z,39.33
2022-09-03T01:28:39.037Z,39.44
2022-09-03T01:31:11.509Z,39.01
2022-09-03T01:33:41.334Z,39.37
2022-09-03T01:36:13.076Z,39.08
2022-09-03T01:38:43.076Z,39.01
2022-09-03T01:41:32.592Z,38.99
2022-09-03T01:44:04.669Z,38.86
2022-09-03T01:46:34.632Z,39.28
2022-09-03T01:49:04.955Z,39.17
2022-09-03T01:51:33.164Z,39.06
2022-09-03T01:54:25.759Z,39.10
2022-09-03T01:57:35.873Z,39.08
2022-09-03T02:00:10.014Z,39.00
2022-09-03T02:02:37.936Z,39.14
2022-09-03T02:05:09.286Z,39.18
2022-09-03T02:07:38.724Z,38.87
2022-09-03T02:10:08.183Z,39.00
2022-09-03T02:12:38.076Z,38.82
2022-09-03T02:15:12.435Z,38.82
2022-09-03T02:17:40.615Z,38.81
2022-09-03T02:20:10.887Z,39.18
2022-09-03T02:22:39.040Z,39.22
2022-09-03T02:25:07.435Z,38.84
2022-09-03T02:27:35.368Z,39.13
2022-09-03T02:30:03.195Z,39.41
2022-09-03T02:32:32.712Z,38.72
2022-09-03T02:35:00.788Z,39.12
2022-09-03T02:37:28.588Z,39.20
2022-09-03T02:39:56.355Z,38.67
2022-09-03T02:42:24.301Z,39.01
2022-09-03T02:44:53.853Z,38.49
2022-09-03T02:47:22.108Z,39.16
2022-09-03T02:49:51.266Z,38.89
2022-09-03T02:52:19.074Z,38.67
2022-09-03T02:54:47.107Z,38.68
2022-09-03T02:57:16.429Z,38.88
2022-09-03T02:59:50.186Z,39.15
2022-09-03T03:02:18.053Z,38.99
2022-09-03T03:04:46.137Z,38.62
2022-09-03T03:07:15.322Z,38.62
2022-09-03T03:09:43.172Z,39.03
2022-09-03T03:12:11.045Z,38.49
2022-09-03T03:14:39.127Z,39.07
2022-09-03T03:17:06.902Z,39.16
2022-09-03T03:19:34.731Z,39.12
2022-09-03T03:22:02.536Z,38.60
2022-09-03T03:24:31.664Z,38.60
2022-09-03T03:26:59.504Z,38.86
2022-09-03T03:29:28.436Z,38.89
2022-09-03T03:31:56.216Z,38.48
2022-09-03T03:34:24.275Z,38.95
2022-09-03T03:36:52.093Z,38.45
2022-09-03T03:39:20.898Z,39.06
2022-09-03T03:41:52.330Z,38.99
2022-09-03T03:44:20.738Z,38.43
2022-09-03T03:46:48.562Z,38.34
2022-09-03T03:49:16.409Z,38.91
2022-09-03T03:51:44.163Z,38.62
2022-09-03T03:54:12.209Z,38.27
2022-09-03T03:56:46.843Z,38.54
2022-09-03T03:59:24.658Z,38.50
2022-09-03T04:01:52.499Z,38.19
2022-09-03T04:04:20.223Z,38.83
2022-09-03T04:06:48.067Z,38.73
2022-09-03T04:09:15.847Z,38.23
2022-09-03T04:11:43.636Z,38.10
2022-09-03T04:14:11.709Z,38.40
2022-09-03T04:16:40.936Z,38.76
2022-09-03T04:19:08.759Z,38.19
2022-09-03T04:21:36.777Z,38.33
2022-09-03T04:24:05.647Z,38.15
2022-09-03T04:26:34.020Z,38.54
2022-09-03T04:29:03.093Z,38.27
2022-09-03T04:31:31.819Z,38.34
2022-09-03T04:34:01.407Z,38.19
2022-09-03T04:36:30.212Z,38.28
2022-09-03T04:38:59.842Z,38.16
2022-09-03T04:41:28.252Z,38.11
2022-09-03T04:43:57.134Z,38.40
2022-09-03T04:46:26.454Z,38.37
2022-09-03T04:48:54.992Z,38.21
2022-09-03T04:51:25.465Z,38.65
2022-09-03T04:53:56.641Z,38.19
2022-09-03T04:56:25.271Z,38.03
2022-09-03T04:58:55.901Z,38.64
2022-09-03T05:01:24.558Z,38.40
2022-09-03T05:03:52.793Z,38.55
2022-09-03T05:06:20.652Z,38.58
2022-09-03T05:08:50.518Z,38.53
2022-09-03T05:11:18.661Z,37.93
2022-09-03T05:13:48.669Z,38.39
2022-09-03T05:16:16.643Z,37.85
2022-09-03T05:18:45.113Z,37.98
2022-09-03T05:21:13.714Z,38.39
2022-09-03T05:23:42.694Z,38.49
2022-09-03T05:26:14.114Z,38.02
2022-09-03T05:28:42.651Z,37.99
2022-09-03T05:31:11.315Z,38.48
2022-09-03T05:33:40.055Z,38.27
2022-09-03T05:36:09.088Z,38.31
2022-09-03T05:38:36.980Z,38.39
2022-09-03T05:41:05.627Z,37.82
2022-09-03T05:43:34.940Z,38.23
2022-09-03T05:46:04.301Z,38.36
2022-09-03T05:48:32.428Z,38.02
2022-09-03T05:51:01.926Z,37.77
2022-09-03T05:53:29.669Z,37.93
2022-09-03T05:55:58.301Z,38.31
2022-09-03T05:58:26.910Z,37.88
2022-09-03T06:00:56.138Z,38.35
2022-09-03T06:03:24.204Z,37.93
2022-09-03T06:05:52.704Z,38.45
2022-09-03T06:08:20.438Z,37.85
2022-09-03T06:10:48.283Z,38.06
2022-09-03T06:13:16.061Z,37.93
2022-09-03T06:15:44.131Z,37.90
2022-09-03T06:18:13.364Z,38.32
2022-09-03T06:20:41.118Z,38.26
2022-09-03T06:23:08.903Z,38.31
2022-09-03T06:25:37.279Z,38.22
2022-09-03T06:28:08.890Z,37.93
2022-09-03T06:30:37.255Z,38.03
2022-09-03T06:33:05.085Z,37.77
2022-09-03T06:35:42.842Z,37.82
2022-09-03T06:38:12.430Z,38.09
2022-09-03T06:40:40.280Z,37.83
2022-09-03T06:43:08.105Z,38.20
2022-09-03T06:45:35.975Z,37.71
2022-09-03T06:48:04.144Z,38.00
2022-09-03T06:50:34.657Z,37.81
2022-09-03T06:53:04.002Z,38.14
2022-09-03T06:55:32.018Z,37.77
2022-09-03T06:57:59.773Z,37.98
2022-09-03T07:00:27.982Z,37.65
2022-09-03T07:03:00.698Z,38.19
2022-09-03T07:05:29.078Z,38.02
2022-09-03T07:07:56.827Z,38.33
2022-09-03T07:10:28.027Z,38.16
2022-09-03T07:12:56.320Z,38.20
2022-09-03T07:15:24.396Z,37.75
2022-09-03T07:17:52.144Z,38.15
2022-09-03T07:20:20.568Z,38.15
2022-09-03T07:22:48.494Z,38.05
2022-09-03T07:25:16.285Z,37.69
2022-09-03T07:27:45.433Z,38.17
2022-09-03T07:30:13.934Z,37.58
2022-09-03T07:32:41.689Z,37.83
2022-09-03T07:35:10.037Z,37.62
2022-09-03T07:37:38.483Z,37.73
2022-09-03T07:40:07.834Z,38.27
2022-09-03T07:42:38.433Z,37.72
2022-09-03T07:45:12.022Z,37.75
2022-09-03T07:47:42.351Z,38.19
2022-09-03T07:50:10.720Z,37.76
2022-09-03T07:52:38.501Z,37.74
2022-09-03T07:55:07.460Z,37.67
2022-09-03T07:57:35.251Z,37.82
2022-09-03T08:00:03.366Z,37.61
2022-09-03T08:02:33.672Z,37.86
2022-09-03T08:05:02.069Z,37.87
2022-09-03T08:07:30.547Z,38.14
2022-09-03T08:09:59.197Z,37.77
2022-09-03T08:12:27.293Z,37.74
2022-09-03T08:14:57.270Z,37.77
2022-09-03T08:17:25.063Z,37.59
2022-09-03T08:19:55.039Z,37.71
2022-09-03T08:22:22.809Z,38.03
2022-09-03T08:24:50.676Z,38.35
2022-09-03T08:27:25.454Z,38.36
2022-09-03T08:29:53.690Z,37.85
2022-09-03T08:32:22.913Z,37.82
2022-09-03T08:34:52.284Z,37.71
2022-09-03T08:37:29.007Z,37.70
2022-09-03T08:39:56.858Z,38.03
2022-09-03T08:42:33.404Z,37.76
2022-09-03T08:45:02.667Z,38.19
2022-09-03T08:47:31.463Z,38.16
2022-09-03T08:50:00.472Z,37.71
2022-09-03T08:52:33.525Z,37.81
2022-09-03T08:55:15.077Z,37.86
2022-09-03T08:57:44.941Z,38.25
2022-09-03T09:00:13.714Z,37.76
2022-09-03T09:02:47.851Z,37.76
2022-09-03T09:05:19.450Z,37.88
2022-09-03T09:07:53.385Z,37.89
2022-09-03T09:10:24.009Z,37.87
2022-09-03T09:12:57.999Z,38.28
2022-09-03T09:15:29.821Z,37.95
2022-09-03T09:18:05.103Z,38.02
2022-09-03T09:20:36.991Z,38.39
2022-09-03T09:23:07.554Z,37.98
2022-09-03T09:25:42.428Z,38.32
2022-09-03T09:28:14.975Z,38.49
2022-09-03T09:30:42.781Z,38.49
2022-09-03T09:33:10.615Z,38.20
2022-09-03T09:35:41.893Z,38.52
2022-09-03T09:38:11.189Z,38.44
2022-09-03T09:40:44.733Z,37.92
2022-09-03T09:43:16.003Z,38.32
2022-09-03T09:45:45.229Z,37.96
2022-09-03T09:48:19.006Z,38.13
2022-09-03T09:50:46.902Z,38.52
2022-09-03T09:53:18.641Z,37.93
2022-09-03T09:55:53.607Z,38.20
2022-09-03T09:58:25.240Z,37.92
2022-09-03T10:00:59.903Z,38.37
2022-09-03T10:03:29.923Z,38.63
2022-09-03T10:06:24.963Z,38.34
2022-09-03T10:08:55.183Z,38.51
2022-09-03T10:11:25.469Z,38.32
2022-09-03T10:13:53.615Z,38.49
2022-09-03T10:16:26.077Z,38.15
2022-09-03T10:18:57.165Z,38.42
2022-09-03T10:21:27.577Z,37.96
2022-09-03T10:23:59.613Z,38.57
2022-09-03T10:26:32.414Z,38.52
2022-09-03T10:29:01.624Z,38.00
2022-09-03T10:31:42.314Z,38.43
2022-09-03T10:34:13.986Z,38.16
2022-09-03T10:36:44.974Z,38.31
2022-09-03T10:39:15.834Z,38.57
2022-09-03T10:41:55.922Z,38.06
2022-09-03T10:44:46.905Z,38.55
2022-09-03T10:47:23.715Z,38.08
2022-09-03T10:49:53.417Z,38.57
2022-09-03T10:52:28.823Z,38.61
2022-09-03T10:55:05.664Z,38.02
2022-09-03T10:57:37.104Z,38.06
2022-09-03T11:00:10.389Z,38.66
2022-09-03T11:02:54.616Z,38.25
2022-09-03T11:05:23.212Z,38.58
2022-09-03T11:07:53.200Z,38.08
2022-09-03T11:10:25.016Z,38.53
2022-09-03T11:13:03.648Z,38.31
2022-09-03T11:15:34.289Z,38.39
2022-09-03T11:18:04.930Z,38.20
2022-09-03T11:20:32.840Z,38.27
2022-09-03T11:23:01.833Z,38.76
2022-09-03T11:25:32.878Z,38.66
2022-09-03T11:28:09.982Z,38.78
2022-09-03T11:30:41.542Z,38.89
2022-09-03T11:33:10.877Z,38.14
2022-09-03T11:35:41.708Z,38.89
2022-09-03T11:38:21.503Z,38.41
2022-09-03T11:40:59.869Z,38.69
2022-09-03T11:43:29.008Z,38.18
2022-09-03T11:46:05.026Z,38.41
2022-09-03T11:48:38.244Z,38.43
2022-09-03T11:51:06.160Z,38.81
2022-09-03T11:53:37.466Z,38.62
2022-09-03T11:56:18.979Z,38.75
2022-09-03T11:58:47.593Z,38.43
2022-09-03T12:01:16.395Z,38.49
2022-09-03T12:03:45.969Z,38.30
2022-09-03T12:06:51.857Z,38.35
2022-09-03T12:09:31.022Z,38.66
2022-09-03T12:12:06.054Z,38.41
2022-09-03T12:14:37.210Z,38.45
2022-09-03T12:17:18.374Z,38.86
2022-09-03T12:19:48.941Z,38.52
2022-09-03T12:22:17.022Z,38.88
2022-09-03T12:24:45.379Z,38.52
2022-09-03T12:27:17.638Z,38.98
2022-09-03T12:29:59.886Z,39.05
2022-09-03T12:32:28.544Z,38.63
2022-09-03T12:34:56.372Z,38.62
2022-09-03T12:40:23.798Z,39.03
2022-09-03T12:42:53.098Z,39.22
2022-09-03T12:45:23.047Z,39.25
2022-09-03T12:47:51.296Z,39.30
2022-09-03T12:50:20.329Z,38.75
2022-09-03T12:52:49.080Z,39.37
2022-09-03T12:55:28.403Z,39.40
2022-09-03T12:58:02.645Z,39.04
2022-09-03T13:00:30.688Z,39.30
2022-09-03T13:03:01.465Z,39.52
2022-09-03T13:05:32.881Z,39.21
2022-09-03T13:08:05.446Z,39.47
2022-09-03T13:10:34.909Z,39.64
2022-09-03T13:13:05.316Z,39.14
2022-09-03T13:15:34.024Z,39.63
2022-09-03T13:18:24.907Z,39.75
2022-09-03T13:21:04.357Z,39.92
2022-09-03T13:23:49.803Z,39.19
2022-09-03T13:26:23.301Z,39.36
2022-09-03T13:29:03.049Z,39.39
2022-09-03T13:31:33.543Z,39.41
2022-09-03T13:34:04.117Z,39.85
2022-09-03T13:36:32.783Z,39.77
2022-09-03T13:39:05.963Z,39.89
2022-09-03T13:41:37.066Z,39.84
2022-09-03T13:44:08.840Z,39.33
2022-09-03T13:46:41.127Z,39.76
2022-09-03T13:49:29.487Z,39.60
2022-09-03T13:51:59.324Z,39.46
2022-09-03T13:54:48.091Z,39.55
2022-09-03T13:57:23.408Z,39.96
2022-09-03T13:59:53.535Z,39.50
2022-09-03T14:02:25.155Z,39.75
2022-09-03T14:05:00.061Z,39.97
2022-09-03T14:07:30.320Z,39.98
2022-09-03T14:10:02.485Z,40.28
2022-09-03T14:12:37.153Z,39.64
2022-09-03T14:15:08.967Z,39.75
2022-09-03T14:17:40.115Z,40.23
2022-09-03T14:20:09.822Z,40.01
2022-09-03T14:22:46.723Z,39.59
2022-09-03T14:25:16.575Z,39.70
2022-09-03T14:27:44.372Z,39.56
2022-09-03T14:30:21.720Z,39.69
2022-09-03T14:32:50.754Z,39.48
2022-09-03T14:35:28.324Z,40.13
2022-09-03T14:38:34.937Z,39.96
2022-09-03T14:41:06.305Z,40.17
2022-09-03T14:44:09.904Z,39.80
2022-09-03T14:46:49.193Z,39.82
2022-09-03T14:49:27.236Z,39.92
2022-09-03T14:52:03.516Z,40.04
2022-09-03T14:54:56.954Z,40.17
2022-09-03T14:57:39.986Z,40.26
2022-09-03T15:00:18.244Z,39.75
2022-09-03T15:03:22.270Z,39.73
2022-09-03T15:06:13.515Z,39.78
2022-09-03T15:08:49.071Z,40.07
2022-09-03T15:11:18.391Z,40.05
2022-09-03T15:13:49.767Z,40.03
2022-09-03T15:16:44.639Z,39.65
2022-09-03T15:19:18.152Z,39.63
2022-09-03T15:21:59.349Z,40.24
2022-09-03T15:24:31.784Z,39.76
2022-09-03T15:27:06.571Z,40.25
2022-09-03T15:29:49.725Z,40.18
2022-09-03T15:32:23.507Z,40.33
2022-09-03T15:35:05.102Z,40.19
2022-09-03T15:37:36.011Z,40.18
2022-09-03T15:40:06.682Z,39.64
2022-09-03T15:42:34.480Z,40.20
2022-09-03T15:45:04.941Z,40.02
2022-09-03T15:47:53.977Z,40.03
2022-09-03T15:50:34.113Z,40.00
2022-09-03T15:53:04.996Z,39.75
2022-09-03T15:55:37.081Z,39.78
2022-09-03T15:58:09.802Z,39.79
2022-09-03T16:00:52.735Z,40.09
2022-09-03T16:03:24.271Z,40.36
2022-09-03T16:05:56.015Z,39.93
2022-09-03T16:08:25.481Z,40.00
2022-09-03T16:11:01.721Z,40.30
2022-09-03T16:13:37.549Z,40.13
2022-09-03T16:16:06.609Z,40.23
2022-09-03T16:18:35.821Z,39.81
2022-09-03T16:21:07.102Z,40.04
2022-09-03T16:23:39.551Z,39.85
2022-09-03T16:26:09.763Z,40.40
2022-09-03T16:28:38.877Z,40.18
2022-09-03T16:31:13.070Z,39.98
2022-09-03T16:33:44.439Z,40.17
2022-09-03T16:36:37.272Z,39.76
2022-09-03T16:39:11.017Z,39.84
2022-09-03T16:41:44.117Z,39.99
2022-09-03T16:44:16.057Z,40.25
2022-09-03T16:46:47.134Z,40.09
2022-09-03T16:49:26.795Z,39.74
2022-09-03T16:51:57.190Z,39.85
2022-09-03T16:54:32.676Z,39.75
2022-09-03T16:57:04.643Z,40.29
2022-09-03T16:59:58.463Z,40.35
2022-09-03T17:02:41.622Z,39.75
2022-09-03T17:05:16.009Z,40.10
2022-09-03T17:08:06.170Z,40.25
2022-09-03T17:10:40.169Z,39.83
2022-09-03T17:13:28.580Z,40.42
2022-09-03T17:15:57.146Z,40.22
2022-09-03T17:18:32.310Z,40.20
2022-09-03T17:21:26.672Z,39.83
2022-09-03T17:24:03.473Z,39.89
2022-09-03T17:26:35.250Z,40.07
2022-09-03T17:29:09.023Z,40.33
2022-09-03T17:31:42.914Z,40.67
2022-09-03T17:34:14.639Z,40.75
2022-09-03T17:36:49.662Z,40.31
2022-09-03T17:39:58.432Z,40.72
2022-09-03T17:42:28.895Z,40.57
2022-09-03T17:45:04.539Z,40.77
2022-09-03T17:47:43.411Z,40.21
2022-09-03T17:50:16.232Z,40.32
2022-09-03T17:52:46.190Z,40.33
2022-09-03T17:55:18.507Z,40.26
2022-09-03T17:57:47.147Z,40.08
2022-09-03T18:00:23.788Z,40.73
2022-09-03T18:02:53.609Z,40.24
2022-09-03T18:05:23.908Z,40.38
2022-09-03T18:07:54.289Z,40.31
2022-09-03T18:10:28.407Z,40.71
2022-09-03T18:13:03.578Z,40.85
2022-09-03T18:15:33.941Z,40.72
2022-09-03T18:18:04.268Z,40.54
2022-09-03T18:21:21.124Z,40.32
2022-09-03T18:24:06.521Z,40.97
2022-09-03T18:26:54.674Z,40.35
2022-09-03T18:29:44.151Z,40.46
2022-09-03T18:32:29.683Z,41.00
2022-09-03T18:35:14.961Z,40.46
2022-09-03T18:38:00.410Z,41.03
2022-09-03T18:40:47.369Z,40.86
2022-09-03T18:43:38.423Z,40.40
2022-09-03T18:47:16.456Z,41.03
2022-09-03T18:49:35.248Z,40.36
2022-09-03T18:52:24.005Z,40.97
2022-09-03T18:55:16.368Z,40.95
2022-09-03T18:58:07.311Z,40.58
2022-09-03T19:00:54.961Z,40.59
2022-09-03T19:03:45.082Z,40.42
2022-09-03T19:06:37.103Z,40.29
2022-09-03T19:09:25.861Z,40.54
2022-09-03T19:12:17.886Z,40.99
2022-09-03T19:15:08.377Z,40.95
2022-09-03T19:18:04.866Z,40.52
2022-09-03T19:20:50.187Z,40.45
2022-09-03T19:23:35.449Z,40.59
2022-09-03T19:26:23.427Z,40.52
2022-09-03T19:29:10.232Z,40.40
2022-09-03T19:32:00.684Z,40.73
2022-09-03T19:34:57.024Z,40.89
2022-09-03T19:37:44.845Z,40.94
2022-09-03T19:40:48.288Z,41.04
2022-09-03T19:43:37.548Z,40.35
2022-09-03T19:46:26.950Z,40.91
2022-09-03T19:49:18.450Z,40.66
2022-09-03T19:52:11.477Z,40.61
2022-09-03T19:54:56.839Z,40.41
2022-09-03T19:57:41.955Z,40.47
2022-09-03T20:00:33.283Z,40.70
2022-09-03T20:03:18.935Z,40.73
2022-09-03T20:06:08.807Z,41.00
2022-09-03T20:08:58.040Z,40.45
2022-09-03T20:11:27.638Z,40.41
2022-09-03T20:14:13.227Z,41.03
2022-09-03T20:16:43.435Z,41.18
2022-09-03T20:19:15.076Z,41.15
2022-09-03T20:21:46.616Z,40.53
2022-09-03T20:24:24.942Z,41.08
2022-09-03T20:26:58.328Z,41.06
2022-09-03T20:29:44.176Z,40.60
2022-09-03T20:32:13.133Z,40.44
2022-09-03T20:34:45.447Z,41.17
2022-09-03T20:37:24.482Z,40.89
2022-09-03T20:40:13.181Z,40.58
2022-09-03T20:42:54.944Z,40.55
2022-09-03T20:45:24.509Z,40.65
2022-09-03T20:48:02.462Z,40.65
2022-09-03T20:50:43.213Z,40.54
2022-09-03T20:53:42.182Z,40.48
2022-09-03T20:56:14.583Z,41.13
2022-09-03T20:58:44.819Z,41.04
2022-09-03T21:01:15.725Z,40.62
2022-09-03T21:03:45.677Z,40.98
2022-09-03T21:06:21.325Z,40.77
2022-09-03T21:09:15.548Z,41.15
2022-09-03T21:11:47.078Z,41.17
2022-09-03T21:14:21.908Z,40.98
2022-09-03T21:16:55.369Z,40.99
2022-09-03T21:19:26.833Z,40.75
2022-09-03T21:21:57.054Z,41.04
2022-09-03T21:24:31.072Z,40.92
2022-09-03T21:27:03.242Z,40.45
2022-09-03T21:29:33.465Z,40.48
2022-09-03T21:32:03.791Z,40.76
2022-09-03T21:34:32.495Z,40.57
2022-09-03T21:37:01.194Z,40.83
2022-09-03T21:39:31.610Z,40.52
2022-09-03T21:42:04.080Z,41.10
2022-09-03T21:44:44.001Z,40.75
2022-09-03T21:47:12.804Z,40.67
2022-09-03T21:49:52.400Z,41.13
2022-09-03T21:52:21.861Z,40.73
2022-09-03T21:54:51.993Z,41.11
2022-09-03T21:57:24.276Z,40.91
2022-09-03T22:00:17.672Z,40.49
2022-09-03T22:02:46.193Z,41.19
2022-09-03T22:05:14.795Z,40.47
2022-09-03T22:07:53.573Z,40.68
2022-09-03T22:10:23.751Z,41.01
2022-09-03T22:12:57.320Z,40.57
2022-09-03T22:15:25.215Z,41.07
2022-09-03T22:17:55.936Z,40.55
2022-09-03T22:20:24.184Z,40.42
2022-09-03T22:22:56.613Z,40.46
2022-09-03T22:25:29.142Z,41.06
2022-09-03T22:28:03.189Z,40.64
2022-09-03T22:30:32.250Z,40.92
2022-09-03T22:33:02.584Z,40.55
2022-09-03T22:35:49.226Z,40.38
2022-09-03T22:38:44.223Z,41.06
2022-09-03T22:41:20.140Z,40.56
2022-09-03T22:43:50.784Z,40.91
2022-09-03T22:46:19.060Z,40.65
2022-09-03T22:49:18.094Z,40.54
2022-09-03T22:51:56.658Z,40.62
2022-09-03T22:54:33.570Z,41.02
2022-09-03T22:57:01.776Z,40.90
2022-09-03T22:59:32.680Z,40.95
2022-09-03T23:02:04.171Z,41.18
2022-09-03T23:04:35.468Z,40.39
2022-09-03T23:07:05.452Z,41.14
2022-09-03T23:09:36.167Z,40.93
2022-09-03T23:12:06.688Z,40.56
2022-09-03T23:14:48.751Z,40.72
2022-09-03T23:17:20.311Z,40.49
2022-09-03T23:19:48.708Z,41.25
2022-09-03T23:22:19.557Z,41.10
2022-09-03T23:24:49.756Z,41.10
2022-09-03T23:27:18.938Z,40.41
2022-09-03T23:29:49.441Z,40.53
2022-09-03T23:32:17.247Z,40.58
2022-09-03T23:34:45.465Z,40.68
2022-09-03T23:37:33.897Z,41.19
2022-09-03T23:40:25.791Z,40.52
2022-09-03T23:43:27.360Z,40.65
2022-09-03T23:46:01.473Z,40.47
2022-09-03T23:48:34.036Z,40.75
2022-09-03T23:51:07.040Z,41.15
2022-09-03T23:53:41.017Z,41.11
2022-09-03T23:56:33.744Z,40.64
2022-09-03T23:59:06.844Z,40.83
